createdAt,value
2023-01-12T00:01:59.437Z,101014.75
2023-01-12T00:04:30.863Z,101011.19
2023-01-12T00:07:01.765Z,101008.34
2023-01-12T00:09:28.603Z,101011.06
2023-01-12T00:11:55.194Z,100996.28
2023-01-12T00:14:21.825Z,100998.88
2023-01-12T00:16:48.471Z,101002.75
2023-01-12T00:19:17.390Z,101002.22
2023-01-12T00:22:07.143Z,100995.75
2023-01-12T00:24:36.616Z,100997.63
2023-01-12T00:27:08.691Z,100984.41
2023-01-12T00:29:35.992Z,100979.56
2023-01-12T00:32:02.902Z,100975.56
2023-01-12T00:34:30.054Z,100972.44
2023-01-12T00:36:57.479Z,100968.56
2023-01-12T00:39:23.967Z,100974.91
2023-01-12T00:42:09.045Z,100978.47
2023-01-12T00:44:54.153Z,100962.00
2023-01-12T00:47:20.715Z,100968.16
2023-01-12T00:49:47.451Z,100972.75
2023-01-12T00:52:29.357Z,100962.97
2023-01-12T00:54:57.481Z,100959.28
2023-01-12T00:57:24.077Z,100947.66
2023-01-12T00:59:51.682Z,100957.53
2023-01-12T01:02:23.066Z,100951.53
2023-01-12T01:04:50.535Z,100945.38
2023-01-12T01:07:18.391Z,100933.78
2023-01-12T01:09:45.076Z,100934.50
2023-01-12T01:12:11.775Z,100914.84
2023-01-12T01:14:40.845Z,100919.00
2023-01-12T01:17:07.687Z,100916.69
2023-01-12T01:19:34.239Z,100929.75
2023-01-12T01:22:00.822Z,100917.13
2023-01-12T01:24:27.527Z,100902.38
2023-01-12T01:26:54.056Z,100903.38
2023-01-12T01:29:20.777Z,100922.31
2023-01-12T01:31:50.119Z,100923.31
2023-01-12T01:34:16.717Z,100900.53
2023-01-12T01:36:48.103Z,100890.66
2023-01-12T01:39:14.618Z,100899.66
2023-01-12T01:41:43.559Z,100898.81
2023-01-12T01:44:29.049Z,100896.09
2023-01-12T01:47:00.774Z,100869.97
2023-01-12T01:49:48.630Z,100897.94
2023-01-12T01:52:23.858Z,100888.22
2023-01-12T01:55:01.704Z,100898.06
2023-01-12T01:57:36.944Z,100905.41
2023-01-12T02:00:12.758Z,100889.19
2023-01-12T02:02:42.256Z,100892.94
2023-01-12T02:05:09.403Z,100879.31
2023-01-12T02:07:36.183Z,100880.03
2023-01-12T02:10:03.880Z,100876.13
2023-01-12T02:12:48.833Z,100865.53
2023-01-12T02:15:34.247Z,100870.13
2023-01-12T02:18:10.820Z,100851.97
2023-01-12T02:21:10.337Z,100825.88
2023-01-12T02:24:01.514Z,100832.16
2023-01-12T02:26:47.803Z,100848.63
2023-01-12T02:29:20.467Z,100834.31
2023-01-12T02:32:26.396Z,100854.38
2023-01-12T02:35:17.021Z,100822.56
2023-01-12T02:38:08.230Z,100824.28
2023-01-12T02:40:48.015Z,100824.28
2023-01-12T02:43:35.177Z,100806.38
2023-01-12T02:46:13.416Z,100801.78
2023-01-12T02:48:51.409Z,100804.66
2023-01-12T02:51:23.690Z,100800.94
2023-01-12T02:53:53.825Z,100781.88
2023-01-12T02:56:30.013Z,100785.59
2023-01-12T02:59:02.231Z,100788.19
2023-01-12T03:01:30.373Z,100789.91
2023-01-12T03:04:01.979Z,100789.16
2023-01-12T03:06:48.118Z,100778.13
2023-01-12T03:09:17.895Z,100760.38
2023-01-12T03:11:48.846Z,100764.66
2023-01-12T03:14:17.421Z,100759.09
2023-01-12T03:16:46.507Z,100740.31
2023-01-12T03:19:21.680Z,100738.34
2023-01-12T03:21:53.630Z,100729.75
2023-01-12T03:24:50.621Z,100734.59
2023-01-12T03:27:28.622Z,100730.16
2023-01-12T03:30:04.514Z,100714.53
2023-01-12T03:32:31.096Z,100717.41
2023-01-12T03:34:59.160Z,100719.97
2023-01-12T03:37:39.592Z,100713.84
2023-01-12T03:40:29.010Z,100706.22
2023-01-12T03:43:24.106Z,100704.34
2023-01-12T03:45:58.776Z,100702.78
2023-01-12T03:48:37.570Z,100669.25
2023-01-12T03:51:14.349Z,100667.56
2023-01-12T03:53:45.335Z,100675.28
2023-01-12T03:56:14.051Z,100673.56
2023-01-12T03:58:41.370Z,100654.94
2023-01-12T04:01:08.117Z,100638.31
2023-01-12T04:03:35.014Z,100630.44
2023-01-12T04:06:01.568Z,100619.41
2023-01-12T04:08:31.662Z,100611.09
2023-01-12T04:10:58.329Z,100589.47
2023-01-12T04:13:24.941Z,100569.16
2023-01-12T04:15:51.724Z,100567.28
2023-01-12T04:18:18.303Z,100562.13
2023-01-12T04:20:46.871Z,100553.94
2023-01-12T04:23:13.421Z,100554.50
2023-01-12T04:25:42.264Z,100564.53
2023-01-12T04:28:08.849Z,100526.59
2023-01-12T04:30:38.388Z,100533.44
2023-01-12T04:33:11.506Z,100519.97
2023-01-12T04:35:38.211Z,100499.88
2023-01-12T04:38:08.995Z,100477.72
2023-01-12T04:40:35.599Z,100489.88
2023-01-12T04:43:02.308Z,100475.59
2023-01-12T04:45:31.632Z,100533.44
2023-01-12T04:48:10.161Z,100538.88
2023-01-12T04:50:38.171Z,100521.38
2023-01-12T04:53:10.425Z,100509.47
2023-01-12T04:55:38.199Z,100478.41
2023-01-12T04:58:04.778Z,100491.56
2023-01-12T05:00:34.340Z,100507.75
2023-01-12T05:03:03.789Z,100469.94
2023-01-12T05:05:32.490Z,100495.00
2023-01-12T05:08:21.349Z,100455.47
2023-01-12T05:10:55.875Z,100469.78
2023-01-12T05:13:24.159Z,100500.59
2023-01-12T05:15:50.702Z,100486.41
2023-01-12T05:18:17.254Z,100497.84
2023-01-12T05:20:43.847Z,100488.59
2023-01-12T05:23:10.414Z,100471.50
2023-01-12T05:25:39.353Z,100467.22
2023-01-12T05:28:05.984Z,100477.81
2023-01-12T05:30:34.806Z,100474.25
2023-01-12T05:33:01.537Z,100456.03
2023-01-12T05:35:30.163Z,100458.75
2023-01-12T05:37:59.058Z,100462.06
2023-01-12T05:40:25.626Z,100456.03
2023-01-12T05:43:11.284Z,100458.59
2023-01-12T05:45:38.106Z,100428.50
2023-01-12T05:48:05.320Z,100455.03
2023-01-12T05:50:33.998Z,100456.03
2023-01-12T05:53:02.796Z,100464.91
2023-01-12T05:55:29.609Z,100457.91
2023-01-12T05:57:56.174Z,100433.72
2023-01-12T06:00:23.021Z,100430.22
2023-01-12T06:02:51.778Z,100436.53
2023-01-12T06:05:21.968Z,100440.38
2023-01-12T06:07:48.547Z,100427.41
2023-01-12T06:10:15.228Z,100444.22
2023-01-12T06:13:00.230Z,100446.06
2023-01-12T06:15:26.836Z,100442.50
2023-01-12T06:17:53.566Z,100445.09
2023-01-12T06:20:22.453Z,100444.09
2023-01-12T06:22:51.239Z,100444.38
2023-01-12T06:25:20.255Z,100437.59
2023-01-12T06:27:46.826Z,100435.91
2023-01-12T06:30:13.689Z,100436.75
2023-01-12T06:32:42.559Z,100433.34
2023-01-12T06:35:18.526Z,100441.59
2023-01-12T06:37:52.905Z,100434.28
2023-01-12T06:40:19.477Z,100437.00
2023-01-12T06:42:48.348Z,100433.75
2023-01-12T06:45:14.932Z,100444.31
2023-01-12T06:47:46.058Z,100443.16
2023-01-12T06:50:13.278Z,100452.88
2023-01-12T06:52:42.062Z,100447.44
2023-01-12T06:55:09.070Z,100455.31
2023-01-12T06:57:35.650Z,100447.97
2023-01-12T07:00:05.114Z,100459.59
2023-01-12T07:02:33.964Z,100453.13
2023-01-12T07:05:05.323Z,100440.28
2023-01-12T07:07:34.428Z,100456.53
2023-01-12T07:10:01.003Z,100449.72
2023-01-12T07:12:27.601Z,100461.69
2023-01-12T07:14:56.160Z,100459.41
2023-01-12T07:17:22.723Z,100432.38
2023-01-12T07:19:49.290Z,100443.56
2023-01-12T07:22:18.015Z,100457.28
2023-01-12T07:24:44.565Z,100458.13
2023-01-12T07:27:11.124Z,100450.94
2023-01-12T07:29:37.658Z,100463.94
2023-01-12T07:32:04.674Z,100452.13
2023-01-12T07:34:33.411Z,100471.97
2023-01-12T07:36:59.929Z,100479.31
2023-01-12T07:39:26.527Z,100482.72
2023-01-12T07:42:14.047Z,100491.75
2023-01-12T07:44:42.785Z,100488.16
2023-01-12T07:47:09.304Z,100487.94
2023-01-12T07:49:36.949Z,100503.50
2023-01-12T07:52:06.238Z,100493.63
2023-01-12T07:54:33.774Z,100496.50
2023-01-12T07:57:02.759Z,100513.97
2023-01-12T07:59:29.371Z,100523.66
2023-01-12T08:01:55.965Z,100513.81
2023-01-12T08:04:23.046Z,100496.72
2023-01-12T08:06:49.911Z,100497.59
2023-01-12T08:09:23.970Z,100511.78
2023-01-12T08:11:50.571Z,100505.00
2023-01-12T08:14:28.701Z,100504.16
2023-01-12T08:17:01.472Z,100501.88
2023-01-12T08:19:38.566Z,100518.47
2023-01-12T08:22:10.135Z,100503.16
2023-01-12T08:24:46.429Z,100510.53
2023-01-12T08:27:13.083Z,100524.00
2023-01-12T08:29:47.175Z,100511.25
2023-01-12T08:32:17.992Z,100515.50
2023-01-12T08:34:48.824Z,100506.25
2023-01-12T08:37:19.611Z,100517.78
2023-01-12T08:39:47.282Z,100510.94
2023-01-12T08:42:13.914Z,100506.56
2023-01-12T08:44:40.643Z,100510.16
2023-01-12T08:47:16.204Z,100522.63
2023-01-12T08:49:46.386Z,100520.28
2023-01-12T08:52:16.654Z,100510.56
2023-01-12T08:54:43.614Z,100529.31
2023-01-12T08:57:10.360Z,100545.50
2023-01-12T08:59:36.973Z,100528.84
2023-01-12T09:02:04.400Z,100541.31
2023-01-12T09:04:33.376Z,100524.03
2023-01-12T09:07:00.270Z,100543.78
2023-01-12T09:09:27.039Z,100544.03
2023-01-12T09:11:55.915Z,100551.50
2023-01-12T09:14:22.515Z,100544.84
2023-01-12T09:16:49.645Z,100538.53
2023-01-12T09:19:16.255Z,100544.31
2023-01-12T09:21:43.637Z,100538.69
2023-01-12T09:24:11.843Z,100543.22
2023-01-12T09:26:40.417Z,100542.66
2023-01-12T09:29:07.956Z,100553.41
2023-01-12T09:31:36.708Z,100545.22
2023-01-12T09:34:03.498Z,100555.22
2023-01-12T09:36:34.975Z,100561.34
2023-01-12T09:39:02.114Z,100552.25
2023-01-12T09:41:50.130Z,100566.66
2023-01-12T09:44:38.067Z,100578.28
2023-01-12T09:47:12.791Z,100582.41
2023-01-12T09:49:45.539Z,100577.09
2023-01-12T09:52:26.421Z,100588.53
2023-01-12T09:54:53.360Z,100590.13
2023-01-12T09:57:57.608Z,100599.16
2023-01-12T10:00:28.146Z,100586.16
2023-01-12T10:03:06.234Z,100597.44
2023-01-12T10:05:47.360Z,100603.59
2023-01-12T10:08:41.364Z,100602.44
2023-01-12T10:11:17.438Z,100594.09
2023-01-12T10:14:05.947Z,100590.19
2023-01-12T10:16:57.306Z,100609.66
2023-01-12T10:19:50.785Z,100605.78
2023-01-12T10:22:39.009Z,100611.09
2023-01-12T10:25:14.891Z,100617.38
2023-01-12T10:27:44.502Z,100617.06
2023-01-12T10:30:17.355Z,100617.75
2023-01-12T10:32:44.700Z,100605.31
2023-01-12T10:35:17.334Z,100612.16
2023-01-12T10:37:52.481Z,100602.59
2023-01-12T10:40:30.142Z,100609.03
2023-01-12T10:43:41.515Z,100610.47
2023-01-12T10:46:17.682Z,100617.06
2023-01-12T10:49:15.224Z,100598.97
2023-01-12T10:52:02.956Z,100596.41
2023-01-12T10:54:32.738Z,100615.34
2023-01-12T10:57:22.021Z,100617.06
2023-01-12T10:59:59.944Z,100604.44
2023-01-12T11:02:43.492Z,100611.78
2023-01-12T11:05:37.464Z,100608.72
2023-01-12T11:08:26.179Z,100606.69
2023-01-12T11:10:52.993Z,100607.56
2023-01-12T11:13:25.268Z,100594.25
2023-01-12T11:16:21.416Z,100611.00
2023-01-12T11:19:17.599Z,100601.44
2023-01-12T11:21:53.947Z,100589.53
2023-01-12T11:24:35.439Z,100595.69
2023-01-12T11:27:11.603Z,100592.78
2023-01-12T11:29:55.844Z,100589.91
2023-01-12T11:32:30.712Z,100586.53
2023-01-12T11:35:10.176Z,100597.16
2023-01-12T11:37:42.663Z,100596.13
2023-01-12T11:40:25.798Z,100596.28
2023-01-12T11:43:13.452Z,100595.25
2023-01-12T11:45:52.482Z,100589.47
2023-01-12T11:48:30.516Z,100582.81
2023-01-12T11:51:01.115Z,100598.53
2023-01-12T11:53:28.074Z,100587.59
2023-01-12T11:56:01.106Z,100587.44
2023-01-12T11:58:36.814Z,100595.47
2023-01-12T12:01:36.677Z,100590.00
2023-01-12T12:04:41.858Z,100572.63
2023-01-12T12:07:35.745Z,100582.22
2023-01-12T12:10:17.568Z,100584.22
2023-01-12T12:13:02.817Z,100586.97
2023-01-12T12:15:48.042Z,100568.72
2023-01-12T12:18:23.424Z,100557.91
2023-01-12T12:21:30.225Z,100560.13
2023-01-12T12:24:29.000Z,100555.72
2023-01-12T12:26:58.405Z,100565.44
2023-01-12T12:30:01.622Z,100561.34
2023-01-12T12:32:45.195Z,100547.47
2023-01-12T12:35:33.142Z,100554.31
2023-01-12T12:38:22.743Z,100553.47
2023-01-12T12:41:14.081Z,100546.28
2023-01-12T12:43:59.595Z,100538.09
2023-01-12T12:46:47.759Z,100541.84
2023-01-12T12:49:23.741Z,100550.03
2023-01-12T12:51:51.601Z,100540.81
2023-01-12T12:54:20.447Z,100539.81
2023-01-12T12:56:48.673Z,100536.56
2023-01-12T12:59:33.654Z,100534.66
2023-01-12T13:02:02.117Z,100521.81
2023-01-12T13:04:44.068Z,100537.41
2023-01-12T13:07:19.942Z,100533.97
2023-01-12T13:09:48.154Z,100531.25
2023-01-12T13:12:33.976Z,100532.09
2023-01-12T13:15:22.920Z,100533.66
2023-01-12T13:17:52.874Z,100535.84
2023-01-12T13:20:26.007Z,100540.81
2023-01-12T13:22:56.690Z,100528.88
2023-01-12T13:25:23.871Z,100535.34
2023-01-12T13:27:59.939Z,100525.31
2023-01-12T13:30:26.557Z,100527.16
2023-01-12T13:32:53.038Z,100526.31
2023-01-12T13:35:27.391Z,100522.91
2023-01-12T13:38:12.099Z,100528.19
2023-01-12T13:40:38.869Z,100533.66
2023-01-12T13:43:31.011Z,100520.00
2023-01-12T13:46:09.590Z,100510.94
2023-01-12T13:48:38.659Z,100507.69
2023-01-12T13:51:12.492Z,100508.78
2023-01-12T13:53:39.123Z,100513.34
2023-01-12T13:56:08.182Z,100505.31
2023-01-12T13:58:43.508Z,100506.19
2023-01-12T14:01:27.402Z,100503.94
2023-01-12T14:04:03.217Z,100515.25
2023-01-12T14:06:50.002Z,100516.25
2023-01-12T14:09:42.777Z,100509.09
2023-01-12T14:12:50.520Z,100508.53
2023-01-12T14:15:43.863Z,100510.25
2023-01-12T14:18:16.728Z,100503.06
2023-01-12T14:20:49.082Z,100499.81
2023-01-12T14:23:19.150Z,100504.81
2023-01-12T14:25:47.874Z,100503.06
2023-01-12T14:28:19.764Z,100503.25
2023-01-12T14:30:52.454Z,100496.25
2023-01-12T14:33:23.672Z,100493.50
2023-01-12T14:35:55.300Z,100498.81
2023-01-12T14:38:27.802Z,100488.53
2023-01-12T14:41:27.685Z,100503.75
2023-01-12T14:44:13.740Z,100490.56
2023-01-12T14:46:49.926Z,100499.47
2023-01-12T14:49:31.436Z,100496.56
2023-01-12T14:52:00.017Z,100498.13
2023-01-12T14:54:31.987Z,100500.84
2023-01-12T14:57:09.039Z,100497.25
2023-01-12T14:59:46.426Z,100481.91
2023-01-12T15:02:19.363Z,100478.47
2023-01-12T15:05:25.582Z,100480.34
2023-01-12T15:08:02.119Z,100481.75
2023-01-12T15:10:35.843Z,100471.47
2023-01-12T15:13:21.355Z,100481.91
2023-01-12T15:16:06.738Z,100471.00
2023-01-12T15:18:53.872Z,100470.28
2023-01-12T15:21:40.172Z,100480.03
2023-01-12T15:24:54.988Z,100470.13
2023-01-12T15:27:23.179Z,100479.19
2023-01-12T15:29:49.932Z,100462.25
2023-01-12T15:32:27.596Z,100470.84
2023-01-12T15:34:59.829Z,100469.09
2023-01-12T15:37:28.662Z,100468.94
2023-01-12T15:40:01.351Z,100457.50
2023-01-12T15:42:30.977Z,100457.19
2023-01-12T15:44:57.523Z,100456.31
2023-01-12T15:47:24.119Z,100457.88
2023-01-12T15:49:53.281Z,100445.19
2023-01-12T15:52:27.223Z,100436.69
2023-01-12T15:54:54.033Z,100439.41
2023-01-12T15:57:23.653Z,100450.16
2023-01-12T15:59:50.220Z,100454.47
2023-01-12T16:02:25.931Z,100453.41
2023-01-12T16:04:52.893Z,100436.69
2023-01-12T16:07:19.505Z,100433.63
2023-01-12T16:09:47.722Z,100431.22
2023-01-12T16:12:18.086Z,100439.25
2023-01-12T16:14:46.945Z,100441.97
2023-01-12T16:17:15.962Z,100447.59
2023-01-12T16:19:42.620Z,100452.88
2023-01-12T16:22:14.112Z,100452.22
2023-01-12T16:24:41.001Z,100450.47
2023-01-12T16:27:07.985Z,100445.81
2023-01-12T16:29:34.679Z,100459.53
2023-01-12T16:32:01.266Z,100452.03
2023-01-12T16:34:27.886Z,100469.09
2023-01-12T16:36:54.625Z,100445.88
2023-01-12T16:39:24.827Z,100454.06
2023-01-12T16:41:53.310Z,100458.88
2023-01-12T16:44:19.883Z,100455.13
2023-01-12T16:46:48.688Z,100467.38
2023-01-12T16:49:15.280Z,100472.84
2023-01-12T16:51:44.150Z,100457.34
2023-01-12T16:54:10.687Z,100473.56
2023-01-12T16:56:39.926Z,100469.44
2023-01-12T16:59:08.025Z,100460.91
2023-01-12T17:01:35.633Z,100448.75
2023-01-12T17:04:02.549Z,100462.81
2023-01-12T17:06:30.320Z,100462.28
2023-01-12T17:09:04.049Z,100464.19
2023-01-12T17:11:30.913Z,100458.88
2023-01-12T17:13:58.299Z,100450.53
2023-01-12T17:16:30.845Z,100452.56
2023-01-12T17:18:57.510Z,100442.50
2023-01-12T17:21:24.626Z,100444.03
2023-01-12T17:23:52.385Z,100453.56
2023-01-12T17:26:19.241Z,100443.69
2023-01-12T17:28:50.523Z,100439.41
2023-01-12T17:31:18.789Z,100436.69
2023-01-12T17:33:46.552Z,100448.28
2023-01-12T17:36:13.401Z,100438.25
2023-01-12T17:38:40.315Z,100439.41
2023-01-12T17:41:31.110Z,100440.09
2023-01-12T17:43:58.315Z,100432.22
2023-01-12T17:46:24.880Z,100438.06
2023-01-12T17:48:51.507Z,100429.34
2023-01-12T17:51:20.364Z,100428.50
2023-01-12T17:53:46.891Z,100431.56
2023-01-12T17:56:13.813Z,100422.38
2023-01-12T17:58:42.721Z,100423.56
2023-01-12T18:01:13.930Z,100421.84
2023-01-12T18:03:40.574Z,100422.19
2023-01-12T18:06:15.119Z,100428.16
2023-01-12T18:08:49.663Z,100436.34
2023-01-12T18:11:16.865Z,100450.00
2023-01-12T18:13:44.199Z,100454.47
2023-01-12T18:16:13.267Z,100457.19
2023-01-12T18:18:42.040Z,100457.50
2023-01-12T18:21:14.026Z,100460.59
2023-01-12T18:23:43.086Z,100451.50
2023-01-12T18:26:15.022Z,100455.31
2023-01-12T18:28:41.847Z,100452.88
2023-01-12T18:31:11.193Z,100466.75
2023-01-12T18:33:37.958Z,100453.09
2023-01-12T18:36:14.044Z,100458.56
2023-01-12T18:38:43.481Z,100441.81
2023-01-12T18:41:28.724Z,100441.66
2023-01-12T18:43:55.506Z,100457.88
2023-01-12T18:46:42.062Z,100467.44
2023-01-12T18:49:10.835Z,100457.22
2023-01-12T18:51:55.977Z,100454.50
2023-01-12T18:54:22.645Z,100443.91
2023-01-12T18:56:49.998Z,100434.47
2023-01-12T18:59:16.966Z,100437.72
2023-01-12T19:01:43.748Z,100445.91
2023-01-12T19:04:15.033Z,100443.03
2023-01-12T19:06:41.592Z,100439.28
2023-01-12T19:09:26.657Z,100442.84
2023-01-12T19:11:53.201Z,100424.19
2023-01-12T19:14:38.485Z,100443.91
2023-01-12T19:17:23.812Z,100446.78
2023-01-12T19:19:50.578Z,100440.44
2023-01-12T19:22:35.760Z,100442.50
2023-01-12T19:25:20.908Z,100441.31
2023-01-12T19:28:06.028Z,100438.75
2023-01-12T19:30:34.360Z,100435.00
2023-01-12T19:33:11.621Z,100433.97
2023-01-12T19:35:41.833Z,100441.31
2023-01-12T19:38:09.301Z,100438.44
2023-01-12T19:40:49.073Z,100434.63
2023-01-12T19:43:21.076Z,100428.69
2023-01-12T19:45:55.598Z,100444.22
2023-01-12T19:48:25.072Z,100447.63
2023-01-12T19:50:53.011Z,100439.44
2023-01-12T19:53:26.086Z,100432.25
2023-01-12T19:55:52.932Z,100433.63
2023-01-12T19:58:22.069Z,100441.16
2023-01-12T20:00:50.076Z,100432.25
2023-01-12T20:03:22.018Z,100404.97
2023-01-12T20:05:51.367Z,100406.69
2023-01-12T20:08:19.816Z,100404.97
2023-01-12T20:10:46.607Z,100404.44
2023-01-12T20:13:14.264Z,100403.44
2023-01-12T20:15:43.045Z,100400.38
2023-01-12T20:18:09.937Z,100395.25
2023-01-12T20:20:36.555Z,100379.19
2023-01-12T20:23:03.261Z,100384.34
2023-01-12T20:25:30.082Z,100393.03
2023-01-12T20:27:57.641Z,100376.97
2023-01-12T20:30:37.419Z,100378.53
2023-01-12T20:33:07.432Z,100394.75
2023-01-12T20:35:35.277Z,100390.31
2023-01-12T20:38:04.095Z,100380.41
2023-01-12T20:40:30.814Z,100381.28
2023-01-12T20:42:57.426Z,100382.13
2023-01-12T20:45:24.308Z,100379.72
2023-01-12T20:47:50.839Z,100385.69
2023-01-12T20:50:18.834Z,100364.41
2023-01-12T20:52:48.176Z,100355.50
2023-01-12T20:55:15.309Z,100365.91
2023-01-12T20:57:41.992Z,100354.81
2023-01-12T21:00:13.293Z,100345.94
2023-01-12T21:02:44.699Z,100364.72
2023-01-12T21:05:11.299Z,100361.84
2023-01-12T21:07:37.873Z,100361.13
2023-01-12T21:10:09.210Z,100359.44
2023-01-12T21:12:37.977Z,100363.69
2023-01-12T21:15:05.014Z,100362.34
2023-01-12T21:17:31.721Z,100362.16
2023-01-12T21:19:58.318Z,100382.13
2023-01-12T21:22:27.100Z,100387.56
2023-01-12T21:24:53.739Z,100387.91
2023-01-12T21:27:20.363Z,100374.25
2023-01-12T21:29:49.245Z,100365.88
2023-01-12T21:32:15.929Z,100378.69
2023-01-12T21:34:42.471Z,100350.28
2023-01-12T21:37:09.066Z,100390.13
2023-01-12T21:39:35.617Z,100381.94
2023-01-12T21:42:20.744Z,100377.31
2023-01-12T21:44:47.274Z,100378.19
2023-01-12T21:47:16.183Z,100376.94
2023-01-12T21:49:42.731Z,100381.09
2023-01-12T21:52:09.247Z,100386.53
2023-01-12T21:54:38.183Z,100395.09
2023-01-12T21:57:07.573Z,100383.09
2023-01-12T21:59:34.148Z,100388.22
2023-01-12T22:02:01.043Z,100387.91
2023-01-12T22:04:27.748Z,100387.38
2023-01-12T22:06:54.321Z,100393.00
2023-01-12T22:09:21.124Z,100402.19
2023-01-12T22:11:47.682Z,100395.91
2023-01-12T22:14:14.227Z,100392.47
2023-01-12T22:16:42.979Z,100401.50
2023-01-12T22:19:12.016Z,100406.66
2023-01-12T22:21:38.587Z,100412.13
2023-01-12T22:24:07.765Z,100423.34
2023-01-12T22:26:37.303Z,100405.25
2023-01-12T22:29:03.904Z,100397.91
2023-01-12T22:31:30.479Z,100399.72
2023-01-12T22:34:05.505Z,100400.38
2023-01-12T22:36:35.002Z,100398.31
2023-01-12T22:39:01.927Z,100402.00
2023-01-12T22:41:28.796Z,100402.63
2023-01-12T22:43:55.580Z,100401.41
2023-01-12T22:46:24.516Z,100388.25
2023-01-12T22:48:55.424Z,100397.13
2023-01-12T22:51:24.926Z,100385.16
2023-01-12T22:53:55.656Z,100388.88
2023-01-12T22:56:22.955Z,100400.16
2023-01-12T22:58:51.697Z,100400.63
2023-01-12T23:01:20.047Z,100427.59
2023-01-12T23:03:48.157Z,100419.09
2023-01-12T23:06:17.375Z,100417.22
2023-01-12T23:08:44.925Z,100423.69
2023-01-12T23:11:12.758Z,100417.16
2023-01-12T23:13:41.115Z,100417.06
2023-01-12T23:16:09.836Z,100407.13
2023-01-12T23:18:39.063Z,100404.50
2023-01-12T23:21:27.823Z,100412.16
2023-01-12T23:23:58.703Z,100423.47
2023-01-12T23:26:31.617Z,100420.75
2023-01-12T23:29:00.421Z,100415.47
2023-01-12T23:31:30.618Z,100420.19
2023-01-12T23:33:59.455Z,100427.38
2023-01-12T23:36:28.160Z,100421.84
2023-01-12T23:38:59.535Z,100418.03
2023-01-12T23:41:30.152Z,100440.84
2023-01-12T23:44:01.215Z,100424.13
2023-01-12T23:46:30.730Z,100423.31
2023-01-12T23:48:57.860Z,100434.78
2023-01-12T23:51:26.655Z,100426.50
2023-01-12T23:53:54.454Z,100441.16
2023-01-12T23:56:23.570Z,100435.63
2023-01-12T23:58:50.181Z,100431.34
